CheckWX is a tool to help pilots better visualize weather data.  It is not intended as a substitute for an official pre-flight weather briefing.

14:28:57 UTC

KAKQ METAR
Wakefield Municipal Airport
Wakefield, Virginia, USA
Current

35 mins ago

KAKQ 221354Z AUTO 34006KT 10SM SCT090 16/08 A3014 RMK AO2 SLP206 T01560078
Observed
Apr-22 @ 13:54 UTC
Wind
  • 340° at 6 KTS
Visibility
10 SM
Flight Rules
VFR
Cloud Levels
  • Scattered at 9,000' AGL
Temperature
16°C / 61°F
Dewpoint
C / 46°F
Humidity
59%
Altimeter
30.14" Hg
Pressure
1020.62 hPa
Previous

2 hours ago

KAKQ 221254Z AUTO VRB03KT 10SM FEW085 14/08 A3013 RMK AO2 SLP205 T01440078
Observed
Apr-22 @ 12:54 UTC
Wind
  • Variable at 3 KTS
Visibility
10 SM
Flight Rules
VFR
Cloud Levels
  • Few at 8,500' AGL
Temperature
14°C / 57°F
Dewpoint
C / 46°F
Humidity
67%
Altimeter
30.13" Hg
Pressure
1020.32 hPa
Previous

3 hours ago

KAKQ 221154Z AUTO VRB04KT 10SM OVC080 13/07 A3013 RMK AO2 SLP204 T01330072 10139 20122 53023
Observed
Apr-22 @ 11:54 UTC
Wind
  • Variable at 4 KTS
Visibility
10 SM
Flight Rules
VFR
Cloud Levels
  • Overcast at 8,000' AGL
Temperature
13°C / 55°F
Dewpoint
C / 45°F
Humidity
67%
Altimeter
30.13" Hg
Pressure
1020.32 hPa